Suehiro Maru No.8 — JK5423 — position and weather

sailwx.info

Track history (hours):
 
Tides and Currents Weather Stations Pressure Air Temp Water Temp Dewpoint Dewpoint Depression Visibility Wind Speed Wind Dir Waves Ship Positions

Suehiro Maru No.8

Last reported at 2014-Aug-27 08:33 UTC. Time now 2014-Aug-27 11:07 UTC.
Position N 34°52' E 139°13'.

Length 88 m; draft 4.2 m.

Type: Cargo ship. MMSI: 431400446.

Date/timePositionNaut miles runAvg speedWind from/ knotsBaromVisibWave heightAir tempDewpointWater temp
2014-Aug-27 08:33N 34°52' E 139°13'1211.6
2014-Aug-27 07:32N 34°59' E 139°25'1212.4
2014-Aug-27 06:33N 35°05' E 139°37'1212.0
2014-Aug-27 05:33N 35°15' E 139°46'1110.8
2014-Aug-27 04:33N 35°26' E 139°45'1111.1
2014-Aug-27 03:33N 35°36' E 139°50'2 2.1
2014-Aug-27 02:33N 35°37' E 139°49'0 0.0
2014-Aug-27 01:33N 35°37' E 139°49'0 0.0
2014-Aug-27 00:33N 35°37' E 139°49'0 0.0
2014-Aug-26 23:33N 35°37' E 139°49'0 0.0
2014-Aug-26 22:33N 35°37' E 139°49'2 2.3
2014-Aug-26 21:33N 35°36' E 139°50'8 8.3
2014-Aug-26 20:33N 35°40' E 139°59'1 0.7
2014-Aug-26 19:33N 35°41' E 139°59'0 0.0
2014-Aug-26 18:33N 35°41' E 139°59'0 0.0
2014-Aug-26 17:33N 35°41' E 139°59'0 0.0
2014-Aug-26 16:33N 35°41' E 139°59'0 0.0
2014-Aug-26 15:33N 35°41' E 139°59'0 0.0
2014-Aug-26 14:33N 35°41' E 139°59'0 0.0
2014-Aug-26 13:33N 35°41' E 139°59'0 0.0
2014-Aug-26 12:33N 35°41' E 139°59'0 0.0
2014-Aug-26 11:33N 35°41' E 139°59'0 0.0
2014-Aug-26 10:33N 35°41' E 139°59'0 0.0
2014-Aug-26 09:33N 35°41' E 139°59'0 0.0
2014-Aug-26 08:33N 35°41' E 139°59'0 0.0
2014-Aug-26 07:33N 35°41' E 139°59'0 0.0
2014-Aug-26 06:33N 35°41' E 139°59'0 0.0
2014-Aug-26 05:33N 35°41' E 139°59'0 0.0
2014-Aug-26 04:33N 35°41' E 139°59'0 0.0
2014-Aug-26 03:33N 35°41' E 139°59'0 0.0
2014-Aug-26 02:33N 35°41' E 139°59'0 0.0
2014-Aug-26 01:33N 35°41' E 139°59'0 0.0
2014-Aug-26 00:33N 35°41' E 139°59'0 0.1
2014-Aug-25 23:33N 35°41' E 139°59'7 7.3
2014-Aug-25 22:33N 35°34' E 139°57'1110.8
2014-Aug-25 21:33N 35°26' E 139°48'1010.3
2014-Aug-25 20:33N 35°15' E 139°47'1211.7
2014-Aug-25 19:33N 35°04' E 139°44'1211.6
2014-Aug-25 18:33N 34°53' E 139°49'1311.3
2014-Aug-25 17:25N 34°57' E 140°03'2812.6
2014-Aug-25 15:12N 35°15' E 140°30'1013.3
2014-Aug-25 14:27N 35°23' E 140°37'1112.8
2014-Aug-25 13:33N 35°32' E 140°46'1312.6
2014-Aug-25 12:33N 35°43' E 140°54'1313.0
2014-Aug-25 11:33N 35°55' E 140°57'40 1.0
2014-Aug-23 21:31N 36°35' E 141°03'1511.8
2014-Aug-23 20:15N 36°20' E 141°01'82 4.9
2014-Aug-23 03:33N 35°22' E 139°50'4 3.8
2014-Aug-23 02:34N 35°22' E 139°45'1212.3
2014-Aug-23 01:34N 35°10' E 139°46'1313.0
2014-Aug-23 00:32N 34°56' E 139°45'1610.7
2014-Aug-22 23:03N 34°57' E 140°04'612.4
2014-Aug-22 22:33N 35°01' E 140°10'1712.2
2014-Aug-22 21:12N 35°11' E 140°26'912.6
2014-Aug-22 20:27N 35°19' E 140°33'1112.1
2014-Aug-22 19:31N 35°28' E 140°42'1212.8
2014-Aug-22 18:34N 35°37' E 140°51'1311.6
2014-Aug-22 17:25N 35°50' E 140°49'8 9.1
2014-Aug-22 16:32N 35°56' E 140°42'1 0.9
2014-Aug-22 15:28N 35°56' E 140°41'0 0.0
2014-Aug-22 13:19N 35°56' E 140°41'0 0.0
2014-Aug-22 06:33N 35°56' E 140°42'8 6.7
2014-Aug-22 05:24N 35°51' E 140°49'1011.4
2014-Aug-22 04:33N 35°42' E 140°54'1212.1
2014-Aug-22 03:34N 35°32' E 140°46'1312.5
2014-Aug-22 02:32N 35°21' E 140°37'1312.4
2014-Aug-22 01:29N 35°11' E 140°27'1111.9
2014-Aug-22 00:32N 35°04' E 140°17'1212.2
2014-Aug-21 23:33N 34°57' E 140°05'1413.0
2014-Aug-21 22:29N 34°49' E 139°51'1212.5
2014-Aug-21 21:34N 34°44' E 139°38'23210.5
2014-Aug-20 23:34N 34°01' E 135°02'1111.2
2014-Aug-20 22:33N 34°13' E 135°04'3 3.4
2014-Aug-20 21:33N 34°15' E 135°07'0 0.0
2014-Aug-20 20:30N 34°15' E 135°07'0 0.0
2014-Aug-20 19:33N 34°15' E 135°07'0 0.0
2014-Aug-20 18:33N 34°15' E 135°07'0 0.0
2014-Aug-20 17:30N 34°15' E 135°07'0 0.0
2014-Aug-20 16:33N 34°15' E 135°07'0 0.0
2014-Aug-20 15:33N 34°15' E 135°07'0 0.0
2014-Aug-20 14:33N 34°15' E 135°07'0 0.0
2014-Aug-20 13:30N 34°15' E 135°07'0 0.0
2014-Aug-20 12:33N 34°15' E 135°07'0 0.0
2014-Aug-20 11:30N 34°15' E 135°07'0 0.0
2014-Aug-20 10:30N 34°15' E 135°07'0 0.0
2014-Aug-20 09:30N 34°15' E 135°07'0 0.1
2014-Aug-20 08:33N 34°15' E 135°07'1 1.1
2014-Aug-20 07:28N 34°15' E 135°06'0 0.0
2014-Aug-20 06:31N 34°15' E 135°06'0 0.0
2014-Aug-20 05:31N 34°15' E 135°06'0 0.1
2014-Aug-20 04:33N 34°15' E 135°06'9 9.1
2014-Aug-20 03:33N 34°24' E 135°04'1212.6
2014-Aug-20 02:34N 34°36' E 135°02'1413.4
2014-Aug-20 01:32N 34°41' E 134°46'  
Track history (hours):
 
Tides and Currents Weather Stations Pressure Air Temp Water Temp Dewpoint Dewpoint Depression Visibility Wind Speed Wind Dir Waves Ship Positions

Suehiro Maru No.8

Last reported at 2014-Aug-27 08:33 UTC. Time now 2014-Aug-27 11:07 UTC.
Position N 34°52' E 139°13'.

Length 88 m; draft 4.2 m.

Type: Cargo ship. MMSI: 431400446.

Date/timePositionNaut miles runAvg speedWind from/ knotsBaromVisibWave heightAir tempDewpointWater temp
2014-Aug-27 08:33N 34°52' E 139°13'1211.6
2014-Aug-27 07:32N 34°59' E 139°25'1212.4
2014-Aug-27 06:33N 35°05' E 139°37'1212.0
2014-Aug-27 05:33N 35°15' E 139°46'1110.8
2014-Aug-27 04:33N 35°26' E 139°45'1111.1
2014-Aug-27 03:33N 35°36' E 139°50'2 2.1
2014-Aug-27 02:33N 35°37' E 139°49'0 0.0
2014-Aug-27 01:33N 35°37' E 139°49'0 0.0
2014-Aug-27 00:33N 35°37' E 139°49'0 0.0
2014-Aug-26 23:33N 35°37' E 139°49'0 0.0
2014-Aug-26 22:33N 35°37' E 139°49'2 2.3
2014-Aug-26 21:33N 35°36' E 139°50'8 8.3
2014-Aug-26 20:33N 35°40' E 139°59'1 0.7
2014-Aug-26 19:33N 35°41' E 139°59'0 0.0
2014-Aug-26 18:33N 35°41' E 139°59'0 0.0
2014-Aug-26 17:33N 35°41' E 139°59'0 0.0
2014-Aug-26 16:33N 35°41' E 139°59'0 0.0
2014-Aug-26 15:33N 35°41' E 139°59'0 0.0
2014-Aug-26 14:33N 35°41' E 139°59'0 0.0
2014-Aug-26 13:33N 35°41' E 139°59'0 0.0
2014-Aug-26 12:33N 35°41' E 139°59'0 0.0
2014-Aug-26 11:33N 35°41' E 139°59'0 0.0
2014-Aug-26 10:33N 35°41' E 139°59'0 0.0
2014-Aug-26 09:33N 35°41' E 139°59'0 0.0
2014-Aug-26 08:33N 35°41' E 139°59'0 0.0
2014-Aug-26 07:33N 35°41' E 139°59'0 0.0
2014-Aug-26 06:33N 35°41' E 139°59'0 0.0
2014-Aug-26 05:33N 35°41' E 139°59'0 0.0
2014-Aug-26 04:33N 35°41' E 139°59'0 0.0
2014-Aug-26 03:33N 35°41' E 139°59'0 0.0
2014-Aug-26 02:33N 35°41' E 139°59'0 0.0
2014-Aug-26 01:33N 35°41' E 139°59'0 0.0
2014-Aug-26 00:33N 35°41' E 139°59'0 0.1
2014-Aug-25 23:33N 35°41' E 139°59'7 7.3
2014-Aug-25 22:33N 35°34' E 139°57'1110.8
2014-Aug-25 21:33N 35°26' E 139°48'1010.3
2014-Aug-25 20:33N 35°15' E 139°47'1211.7
2014-Aug-25 19:33N 35°04' E 139°44'1211.6
2014-Aug-25 18:33N 34°53' E 139°49'1311.3
2014-Aug-25 17:25N 34°57' E 140°03'2812.6
2014-Aug-25 15:12N 35°15' E 140°30'1013.3
2014-Aug-25 14:27N 35°23' E 140°37'1112.8
2014-Aug-25 13:33N 35°32' E 140°46'1312.6
2014-Aug-25 12:33N 35°43' E 140°54'1313.0
2014-Aug-25 11:33N 35°55' E 140°57'40 1.0
2014-Aug-23 21:31N 36°35' E 141°03'1511.8
2014-Aug-23 20:15N 36°20' E 141°01'82 4.9
2014-Aug-23 03:33N 35°22' E 139°50'4 3.8
2014-Aug-23 02:34N 35°22' E 139°45'1212.3
2014-Aug-23 01:34N 35°10' E 139°46'1313.0
2014-Aug-23 00:32N 34°56' E 139°45'1610.7
2014-Aug-22 23:03N 34°57' E 140°04'612.4
2014-Aug-22 22:33N 35°01' E 140°10'1712.2
2014-Aug-22 21:12N 35°11' E 140°26'912.6
2014-Aug-22 20:27N 35°19' E 140°33'1112.1
2014-Aug-22 19:31N 35°28' E 140°42'1212.8
2014-Aug-22 18:34N 35°37' E 140°51'1311.6
2014-Aug-22 17:25N 35°50' E 140°49'8 9.1
2014-Aug-22 16:32N 35°56' E 140°42'1 0.9
2014-Aug-22 15:28N 35°56' E 140°41'0 0.0
2014-Aug-22 13:19N 35°56' E 140°41'0 0.0
2014-Aug-22 06:33N 35°56' E 140°42'8 6.7
2014-Aug-22 05:24N 35°51' E 140°49'1011.4
2014-Aug-22 04:33N 35°42' E 140°54'1212.1
2014-Aug-22 03:34N 35°32' E 140°46'1312.5
2014-Aug-22 02:32N 35°21' E 140°37'1312.4
2014-Aug-22 01:29N 35°11' E 140°27'1111.9
2014-Aug-22 00:32N 35°04' E 140°17'1212.2
2014-Aug-21 23:33N 34°57' E 140°05'1413.0
2014-Aug-21 22:29N 34°49' E 139°51'1212.5
2014-Aug-21 21:34N 34°44' E 139°38'23210.5
2014-Aug-20 23:34N 34°01' E 135°02'1111.2
2014-Aug-20 22:33N 34°13' E 135°04'3 3.4
2014-Aug-20 21:33N 34°15' E 135°07'0 0.0
2014-Aug-20 20:30N 34°15' E 135°07'0 0.0
2014-Aug-20 19:33N 34°15' E 135°07'0 0.0
2014-Aug-20 18:33N 34°15' E 135°07'0 0.0
2014-Aug-20 17:30N 34°15' E 135°07'0 0.0
2014-Aug-20 16:33N 34°15' E 135°07'0 0.0
2014-Aug-20 15:33N 34°15' E 135°07'0 0.0
2014-Aug-20 14:33N 34°15' E 135°07'0 0.0
2014-Aug-20 13:30N 34°15' E 135°07'0 0.0
2014-Aug-20 12:33N 34°15' E 135°07'0 0.0
2014-Aug-20 11:30N 34°15' E 135°07'0 0.0
2014-Aug-20 10:30N 34°15' E 135°07'0 0.0
2014-Aug-20 09:30N 34°15' E 135°07'0 0.1
2014-Aug-20 08:33N 34°15' E 135°07'1 1.1
2014-Aug-20 07:28N 34°15' E 135°06'0 0.0
2014-Aug-20 06:31N 34°15' E 135°06'0 0.0
2014-Aug-20 05:31N 34°15' E 135°06'0 0.1
2014-Aug-20 04:33N 34°15' E 135°06'9 9.1
2014-Aug-20 03:33N 34°24' E 135°04'1212.6
2014-Aug-20 02:34N 34°36' E 135°02'1413.4
2014-Aug-20 01:32N 34°41' E 134°46'  

Dump ship's entire track history